sensor_id;sensor_type;location;lat;lon;timestamp;pressure;altitude;pressure_sealevel;temperature;humidity
62418;BME280;48456;54.242;10.280;2023-03-19T00:01:30;101102.88;;;6.60;100.00
62418;BME280;48456;54.242;10.280;2023-03-19T00:03:57;101101.97;;;6.60;100.00
62418;BME280;48456;54.242;10.280;2023-03-19T00:06:23;101099.31;;;6.58;100.00
62418;BME280;48456;54.242;10.280;2023-03-19T00:08:50;101103.75;;;6.61;100.00
62418;BME280;48456;54.242;10.280;2023-03-19T00:11:17;101108.13;;;6.60;100.00
62418;BME280;48456;54.242;10.280;2023-03-19T00:13:43;101104.56;;;6.58;100.00
62418;BME280;48456;54.242;10.280;2023-03-19T00:16:10;101100.25;;;6.60;100.00
62418;BME280;48456;54.242;10.280;2023-03-19T00:18:36;101106.31;;;6.58;100.00
62418;BME280;48456;54.242;10.280;2023-03-19T00:21:03;101108.03;;;6.56;100.00
62418;BME280;48456;54.242;10.280;2023-03-19T00:23:29;101104.50;;;6.52;100.00
62418;BME280;48456;54.242;10.280;2023-03-19T00:25:56;101100.16;;;6.56;100.00
62418;BME280;48456;54.242;10.280;2023-03-19T00:28:22;101102.75;;;6.54;100.00
62418;BME280;48456;54.242;10.280;2023-03-19T00:30:49;101105.34;;;6.53;100.00
62418;BME280;48456;54.242;10.280;2023-03-19T00:33:15;101105.41;;;6.56;100.00
62418;BME280;48456;54.242;10.280;2023-03-19T00:35:41;101099.44;;;6.65;100.00
62418;BME280;48456;54.242;10.280;2023-03-19T00:38:08;101106.50;;;6.69;100.00
62418;BME280;48456;54.242;10.280;2023-03-19T00:40:34;101111.09;;;6.81;100.00
62418;BME280;48456;54.242;10.280;2023-03-19T00:43:01;101115.53;;;6.85;100.00
62418;BME280;48456;54.242;10.280;2023-03-19T00:45:27;101111.19;;;6.88;100.00
62418;BME280;48456;54.242;10.280;2023-03-19T00:47:56;101114.72;;;6.89;100.00
62418;BME280;48456;54.242;10.280;2023-03-19T00:50:23;101111.97;;;6.83;100.00
62418;BME280;48456;54.242;10.280;2023-03-19T00:52:50;101110.06;;;6.72;100.00
62418;BME280;48456;54.242;10.280;2023-03-19T00:55:17;101106.38;;;6.61;100.00
62418;BME280;48456;54.242;10.280;2023-03-19T00:57:43;101119.34;;;6.52;100.00
62418;BME280;48456;54.242;10.280;2023-03-19T01:00:10;101120.19;;;6.49;100.00
62418;BME280;48456;54.242;10.280;2023-03-19T01:02:36;101118.44;;;6.49;100.00
62418;BME280;48456;54.242;10.280;2023-03-19T01:05:03;101115.88;;;6.53;100.00
62418;BME280;48456;54.242;10.280;2023-03-19T01:07:29;101117.72;;;6.58;100.00
62418;BME280;48456;54.242;10.280;2023-03-19T01:09:56;101110.81;;;6.65;100.00
62418;BME280;48456;54.242;10.280;2023-03-19T01:12:22;101103.88;;;6.67;100.00
62418;BME280;48456;54.242;10.280;2023-03-19T01:14:48;101103.88;;;6.67;100.00
62418;BME280;48456;54.242;10.280;2023-03-19T01:17:15;101112.59;;;6.65;100.00
62418;BME280;48456;54.242;10.280;2023-03-19T01:19:41;101100.22;;;6.59;100.00
62418;BME280;48456;54.242;10.280;2023-03-19T01:22:08;101107.13;;;6.52;100.00
62418;BME280;48456;54.242;10.280;2023-03-19T01:24:34;101111.31;;;6.42;100.00
62418;BME280;48456;54.242;10.280;2023-03-19T01:27:01;101105.97;;;6.37;100.00
62418;BME280;48456;54.242;10.280;2023-03-19T01:29:27;101098.03;;;6.33;100.00
62418;BME280;48456;54.242;10.280;2023-03-19T01:31:53;101107.63;;;6.32;100.00
62418;BME280;48456;54.242;10.280;2023-03-19T01:34:21;101097.81;;;6.23;100.00
62418;BME280;48456;54.242;10.280;2023-03-19T01:36:48;101098.56;;;6.15;100.00
62418;BME280;48456;54.242;10.280;2023-03-19T01:39:14;101101.84;;;6.04;100.00
62418;BME280;48456;54.242;10.280;2023-03-19T01:41:41;101091.22;;;5.98;100.00
62418;BME280;48456;54.242;10.280;2023-03-19T01:44:27;101098.97;;;5.93;100.00
62418;BME280;48456;54.242;10.280;2023-03-19T01:46:53;101100.66;;;5.90;100.00
62418;BME280;48456;54.242;10.280;2023-03-19T01:49:20;101100.66;;;5.90;100.00
62418;BME280;48456;54.242;10.280;2023-03-19T01:51:48;101095.38;;;5.88;100.00
62418;BME280;48456;54.242;10.280;2023-03-19T01:54:15;101095.31;;;5.85;100.00
62418;BME280;48456;54.242;10.280;2023-03-19T01:56:44;101097.88;;;5.80;100.00
62418;BME280;48456;54.242;10.280;2023-03-19T01:59:16;101095.19;;;5.77;100.00
62418;BME280;48456;54.242;10.280;2023-03-19T02:01:50;101090.81;;;5.79;100.00
62418;BME280;48456;54.242;10.280;2023-03-19T02:04:18;101090.75;;;5.75;100.00
62418;BME280;48456;54.242;10.280;2023-03-19T02:06:45;101094.13;;;5.69;100.00
62418;BME280;48456;54.242;10.280;2023-03-19T02:09:12;101085.22;;;5.61;100.00
62418;BME280;48456;54.242;10.280;2023-03-19T02:11:39;101082.50;;;5.57;100.00
62418;BME280;48456;54.242;10.280;2023-03-19T02:14:06;101085.09;;;5.54;100.00
62418;BME280;48456;54.242;10.280;2023-03-19T02:16:34;101096.38;;;5.50;100.00
62418;BME280;48456;54.242;10.280;2023-03-19T02:19:01;101100.81;;;5.53;100.00
62418;BME280;48456;54.242;10.280;2023-03-19T02:21:27;101097.31;;;5.54;100.00
62418;BME280;48456;54.242;10.280;2023-03-19T02:26:39;101092.97;;;5.54;100.00
62418;BME280;48456;54.242;10.280;2023-03-19T02:29:06;101095.41;;;5.46;100.00
62418;BME280;48456;54.242;10.280;2023-03-19T02:31:33;101090.00;;;5.39;100.00
62418;BME280;48456;54.242;10.280;2023-03-19T02:34:00;101099.47;;;5.32;100.00
62418;BME280;48456;54.242;10.280;2023-03-19T02:36:28;101086.28;;;5.29;100.00
62418;BME280;48456;54.242;10.280;2023-03-19T02:38:57;101090.56;;;5.24;100.00
62418;BME280;48456;54.242;10.280;2023-03-19T02:41:25;101080.78;;;5.16;100.00
62418;BME280;48456;54.242;10.280;2023-03-19T02:43:53;101080.59;;;5.09;100.00
62418;BME280;48456;54.242;10.280;2023-03-19T02:46:19;101090.09;;;5.03;100.00
62418;BME280;48456;54.242;10.280;2023-03-19T02:48:46;101087.44;;;5.02;100.00
62418;BME280;48456;54.242;10.280;2023-03-19T02:51:13;101083.03;;;4.99;100.00
62418;BME280;48456;54.242;10.280;2023-03-19T02:53:39;101083.88;;;5.00;100.00
62418;BME280;48456;54.242;10.280;2023-03-19T02:56:06;101088.28;;;4.99;100.00
62418;BME280;48456;54.242;10.280;2023-03-19T02:58:32;101089.91;;;4.96;100.00
62418;BME280;48456;54.242;10.280;2023-03-19T03:00:58;101090.81;;;4.96;100.00
62418;BME280;48456;54.242;10.280;2023-03-19T03:03:25;101089.88;;;4.94;100.00
62418;BME280;48456;54.242;10.280;2023-03-19T03:05:51;101089.81;;;4.91;100.00
62418;BME280;48456;54.242;10.280;2023-03-19T03:08:18;101084.47;;;4.86;100.00
62418;BME280;48456;54.242;10.280;2023-03-19T03:10:44;101090.44;;;4.80;100.00
62418;BME280;48456;54.242;10.280;2023-03-19T03:13:10;101093.00;;;4.77;100.00
62418;BME280;48456;54.242;10.280;2023-03-19T03:15:37;101085.00;;;4.73;100.00
62418;BME280;48456;54.242;10.280;2023-03-19T03:18:03;101081.44;;;4.69;100.00
62418;BME280;48456;54.242;10.280;2023-03-19T03:20:29;101090.13;;;4.68;100.00
62418;BME280;48456;54.242;10.280;2023-03-19T03:22:56;101091.06;;;4.70;100.00
62418;BME280;48456;54.242;10.280;2023-03-19T03:25:22;101089.41;;;4.74;100.00
62418;BME280;48456;54.242;10.280;2023-03-19T03:27:48;101094.63;;;4.74;100.00
62418;BME280;48456;54.242;10.280;2023-03-19T03:30:15;101099.03;;;4.75;100.00
62418;BME280;48456;54.242;10.280;2023-03-19T03:32:42;101092.91;;;4.74;100.00
62418;BME280;48456;54.242;10.280;2023-03-19T03:35:08;101092.06;;;4.75;100.00
62418;BME280;48456;54.242;10.280;2023-03-19T03:37:35;101095.38;;;4.68;100.00
62418;BME280;48456;54.242;10.280;2023-03-19T03:40:02;101093.53;;;4.64;100.00
62418;BME280;48456;54.242;10.280;2023-03-19T03:42:33;101095.16;;;4.59;100.00
62418;BME280;48456;54.242;10.280;2023-03-19T03:45:01;101093.34;;;4.56;100.00
62418;BME280;48456;54.242;10.280;2023-03-19T03:47:28;101095.88;;;4.53;100.00
62418;BME280;48456;54.242;10.280;2023-03-19T03:49:54;101089.69;;;4.49;100.00
62418;BME280;48456;54.242;10.280;2023-03-19T03:52:21;101100.97;;;4.47;100.00
62418;BME280;48456;54.242;10.280;2023-03-19T03:54:47;101096.59;;;4.46;100.00
62418;BME280;48456;54.242;10.280;2023-03-19T03:57:13;101100.06;;;4.46;100.00
62418;BME280;48456;54.242;10.280;2023-03-19T03:59:40;101104.47;;;4.47;100.00
62418;BME280;48456;54.242;10.280;2023-03-19T04:02:07;101098.22;;;4.42;100.00
62418;BME280;48456;54.242;10.280;2023-03-19T04:04:33;101100.69;;;4.36;100.00
62418;BME280;48456;54.242;10.280;2023-03-19T04:07:00;101100.56;;;4.31;100.00
62418;BME280;48456;54.242;10.280;2023-03-19T04:09:26;101101.31;;;4.27;100.00
62418;BME280;48456;54.242;10.280;2023-03-19T04:11:53;101101.31;;;4.27;100.00
62418;BME280;48456;54.242;10.280;2023-03-19T04:14:19;101098.66;;;4.25;100.00
62418;BME280;48456;54.242;10.280;2023-03-19T04:16:45;101109.13;;;4.25;100.00
62418;BME280;48456;54.242;10.280;2023-03-19T04:19:12;101101.25;;;4.24;100.00
62418;BME280;48456;54.242;10.280;2023-03-19T04:21:39;101096.84;;;4.23;100.00
62418;BME280;48456;54.242;10.280;2023-03-19T04:24:06;101102.09;;;4.23;100.00
62418;BME280;48456;54.242;10.280;2023-03-19T04:26:32;101108.19;;;4.22;100.00
62418;BME280;48456;54.242;10.280;2023-03-19T04:28:59;101101.13;;;4.19;100.00
62418;BME280;48456;54.242;10.280;2023-03-19T04:31:25;101103.56;;;4.11;100.00
62418;BME280;48456;54.242;10.280;2023-03-19T04:33:53;101099.09;;;4.09;100.00
62418;BME280;48456;54.242;10.280;2023-03-19T04:36:20;101098.09;;;4.03;100.00
62418;BME280;48456;54.242;10.280;2023-03-19T04:38:46;101097.97;;;3.99;100.00
62418;BME280;48456;54.242;10.280;2023-03-19T04:41:13;101104.97;;;4.00;100.00
62418;BME280;48456;54.242;10.280;2023-03-19T04:43:41;101099.66;;;3.97;100.00
62418;BME280;48456;54.242;10.280;2023-03-19T04:46:07;101102.28;;;3.97;100.00
62418;BME280;48456;54.242;10.280;2023-03-19T04:48:34;101106.66;;;3.98;100.00
62418;BME280;48456;54.242;10.280;2023-03-19T04:51:01;101104.03;;;3.96;100.00
62418;BME280;48456;54.242;10.280;2023-03-19T04:53:28;101100.31;;;3.88;100.00
62418;BME280;48456;54.242;10.280;2023-03-19T04:55:55;101105.44;;;3.85;100.00
62418;BME280;48456;54.242;10.280;2023-03-19T04:58:21;101101.06;;;3.84;100.00
62418;BME280;48456;54.242;10.280;2023-03-19T05:00:48;101108.91;;;3.84;100.00
62418;BME280;48456;54.242;10.280;2023-03-19T05:03:14;101107.06;;;3.80;100.00
62418;BME280;48456;54.242;10.280;2023-03-19T05:05:40;101111.38;;;3.79;100.00
62418;BME280;48456;54.242;10.280;2023-03-19T05:08:07;101112.19;;;3.76;100.00
62418;BME280;48456;54.242;10.280;2023-03-19T05:10:34;101111.28;;;3.76;100.00
62418;BME280;48456;54.242;10.280;2023-03-19T05:13:02;101106.00;;;3.73;100.00
62418;BME280;48456;54.242;10.280;2023-03-19T05:15:28;101103.19;;;3.67;100.00
62418;BME280;48456;54.242;10.280;2023-03-19T05:17:54;101106.59;;;3.64;100.00
62418;BME280;48456;54.242;10.280;2023-03-19T05:20:21;101102.22;;;3.63;100.00
62418;BME280;48456;54.242;10.280;2023-03-19T05:22:48;101107.50;;;3.66;100.00
62418;BME280;48456;54.242;10.280;2023-03-19T05:25:17;101111.13;;;3.70;100.00
62418;BME280;48456;54.242;10.280;2023-03-19T05:27:44;101104.25;;;3.73;100.00
62418;BME280;48456;54.242;10.280;2023-03-19T05:30:11;101112.09;;;3.73;100.00
62418;BME280;48456;54.242;10.280;2023-03-19T05:32:37;101109.56;;;3.76;100.00
62418;BME280;48456;54.242;10.280;2023-03-19T05:35:05;101107.00;;;3.78;100.00
62418;BME280;48456;54.242;10.280;2023-03-19T05:37:32;101105.44;;;3.85;100.00
62418;BME280;48456;54.242;10.280;2023-03-19T05:39:58;101107.41;;;3.94;100.00
62418;BME280;48456;54.242;10.280;2023-03-19T05:42:25;101113.78;;;4.03;100.00
62418;BME280;48456;54.242;10.280;2023-03-19T05:44:51;101100.75;;;4.05;100.00
62418;BME280;48456;54.242;10.280;2023-03-19T05:47:17;101106.88;;;4.06;100.00
62418;BME280;48456;54.242;10.280;2023-03-19T05:49:44;101101.75;;;4.10;100.00
62418;BME280;48456;54.242;10.280;2023-03-19T05:52:10;101106.19;;;4.11;100.00
62418;BME280;48456;54.242;10.280;2023-03-19T05:54:37;101103.56;;;4.11;100.00
62418;BME280;48456;54.242;10.280;2023-03-19T05:57:03;101097.38;;;4.09;100.00
62418;BME280;48456;54.242;10.280;2023-03-19T05:59:30;101098.22;;;4.08;100.00
62418;BME280;48456;54.242;10.280;2023-03-19T06:01:57;101098.50;;;4.19;100.00
62418;BME280;48456;54.242;10.280;2023-03-19T06:04:23;101097.84;;;4.26;100.00
62418;BME280;48456;54.242;10.280;2023-03-19T06:06:49;101106.69;;;4.32;100.00
62418;BME280;48456;54.242;10.280;2023-03-19T06:09:16;101099.88;;;4.38;100.00
62418;BME280;48456;54.242;10.280;2023-03-19T06:11:42;101104.47;;;4.47;100.00
62418;BME280;48456;54.242;10.280;2023-03-19T06:14:08;101099.44;;;4.55;100.00
62418;BME280;48456;54.242;10.280;2023-03-19T06:16:35;101100.56;;;4.65;100.00
62418;BME280;48456;54.242;10.280;2023-03-19T06:19:02;101097.09;;;4.66;100.00
62418;BME280;48456;54.242;10.280;2023-03-19T06:21:29;101098.88;;;4.68;100.00
62418;BME280;48456;54.242;10.280;2023-03-19T06:23:55;101096.41;;;4.75;100.00
62418;BME280;48456;54.242;10.280;2023-03-19T06:26:22;101096.44;;;4.76;100.00
62418;BME280;48456;54.242;10.280;2023-03-19T06:28:49;101089.34;;;4.72;100.00
62418;BME280;48456;54.242;10.280;2023-03-19T06:31:15;101094.56;;;4.71;100.00
62418;BME280;48456;54.242;10.280;2023-03-19T06:33:42;101106.13;;;4.79;100.00
62418;BME280;48456;54.242;10.280;2023-03-19T06:36:08;101101.13;;;4.88;100.00
62418;BME280;48456;54.242;10.280;2023-03-19T06:38:34;101102.28;;;5.01;100.00
62418;BME280;48456;54.242;10.280;2023-03-19T06:41:02;101105.22;;;5.15;100.00
62418;BME280;48456;54.242;10.280;2023-03-19T06:43:28;101113.34;;;5.26;100.00
62418;BME280;48456;54.242;10.280;2023-03-19T06:45:55;101118.91;;;5.40;100.00
62418;BME280;48456;54.242;10.280;2023-03-19T06:48:22;101114.78;;;5.52;100.00
62418;BME280;48456;54.242;10.280;2023-03-19T06:50:48;101121.09;;;5.62;100.00
62418;BME280;48456;54.242;10.280;2023-03-19T06:53:14;101120.41;;;5.70;100.00
62418;BME280;48456;54.242;10.280;2023-03-19T06:55:41;101121.31;;;5.71;100.00
62418;BME280;48456;54.242;10.280;2023-03-19T06:58:07;101124.81;;;5.71;100.00
62418;BME280;48456;54.242;10.280;2023-03-19T07:00:33;101130.19;;;5.79;100.00
62418;BME280;48456;54.242;10.280;2023-03-19T07:03:01;101126.69;;;5.77;100.00
62418;BME280;48456;54.242;10.280;2023-03-19T07:05:27;101126.72;;;5.79;100.00
62418;BME280;48456;54.242;10.280;2023-03-19T07:07:54;101136.56;;;5.91;100.00
62418;BME280;48456;54.242;10.280;2023-03-19T07:10:20;101126.34;;;6.03;100.00
62418;BME280;48456;54.242;10.280;2023-03-19T07:12:47;101128.25;;;6.10;100.00
62418;BME280;48456;54.242;10.280;2023-03-19T07:15:13;101130.97;;;6.17;100.00
62418;BME280;48456;54.242;10.280;2023-03-19T07:17:40;101135.59;;;6.30;100.00
62418;BME280;48456;54.242;10.280;2023-03-19T07:20:06;101134.22;;;6.51;100.00
62418;BME280;48456;54.242;10.280;2023-03-19T07:22:33;101131.91;;;6.68;100.00
62418;BME280;48456;54.242;10.280;2023-03-19T07:24:59;101141.84;;;6.88;100.00
62418;BME280;48456;54.242;10.280;2023-03-19T07:27:26;101135.19;;;7.07;100.00
62418;BME280;48456;54.242;10.280;2023-03-19T07:29:52;101145.03;;;7.24;100.00
62418;BME280;48456;54.242;10.280;2023-03-19T07:32:21;101138.19;;;7.34;100.00
62418;BME280;48456;54.242;10.280;2023-03-19T07:34:48;101137.44;;;7.43;100.00
62418;BME280;48456;54.242;10.280;2023-03-19T07:37:15;101138.41;;;7.49;100.00
62418;BME280;48456;54.242;10.280;2023-03-19T07:39:41;101137.63;;;7.58;100.00
62418;BME280;48456;54.242;10.280;2023-03-19T07:42:07;101141.25;;;7.66;100.00
62418;BME280;48456;54.242;10.280;2023-03-19T07:44:34;101136.97;;;7.75;100.00
62418;BME280;48456;54.242;10.280;2023-03-19T07:47:00;101144.09;;;7.82;100.00
62418;BME280;48456;54.242;10.280;2023-03-19T07:49:26;101140.66;;;7.88;100.00
62418;BME280;48456;54.242;10.280;2023-03-19T07:51:53;101146.06;;;7.99;100.00
62418;BME280;48456;54.242;10.280;2023-03-19T07:54:19;101141.84;;;8.15;100.00
62418;BME280;48456;54.242;10.280;2023-03-19T07:56:46;101142.00;;;8.30;100.00
62418;BME280;48456;54.242;10.280;2023-03-19T07:59:12;101144.75;;;8.40;100.00
62418;BME280;48456;54.242;10.280;2023-03-19T08:01:39;101141.41;;;8.56;100.00
62418;BME280;48456;54.242;10.280;2023-03-19T08:04:05;101138.03;;;8.71;100.00
62418;BME280;48456;54.242;10.280;2023-03-19T08:06:32;101135.56;;;8.92;100.00
62418;BME280;48456;54.242;10.280;2023-03-19T08:08:58;101137.53;;;9.19;100.00
62418;BME280;48456;54.242;10.280;2023-03-19T08:11:25;101136.72;;;9.33;100.00
62418;BME280;48456;54.242;10.280;2023-03-19T08:13:51;101130.72;;;9.59;100.00
62418;BME280;48456;54.242;10.280;2023-03-19T08:16:17;101133.44;;;9.74;100.00
62418;BME280;48456;54.242;10.280;2023-03-19T08:18:44;101134.34;;;9.83;100.00
62418;BME280;48456;54.242;10.280;2023-03-19T08:21:10;101135.28;;;9.99;100.00
62418;BME280;48456;54.242;10.280;2023-03-19T08:23:36;101146.75;;;9.99;100.00
62418;BME280;48456;54.242;10.280;2023-03-19T08:26:03;101159.06;;;9.94;100.00
62418;BME280;48456;54.242;10.280;2023-03-19T08:28:29;101147.56;;;9.86;100.00
62418;BME280;48456;54.242;10.280;2023-03-19T08:30:56;101150.25;;;9.89;100.00
62418;BME280;48456;54.242;10.280;2023-03-19T08:33:22;101159.88;;;9.84;100.00
62418;BME280;48456;54.242;10.280;2023-03-19T08:35:49;101152.88;;;9.94;100.00
62418;BME280;48456;54.242;10.280;2023-03-19T08:38:17;101160.84;;;9.97;100.00
62418;BME280;48456;54.242;10.280;2023-03-19T08:40:44;101156.50;;;10.10;100.00
62418;BME280;48456;54.242;10.280;2023-03-19T08:43:10;101153.88;;;10.25;100.00
62418;BME280;48456;54.242;10.280;2023-03-19T08:45:37;101153.91;;;10.39;100.00
62418;BME280;48456;54.242;10.280;2023-03-19T08:48:03;101156.63;;;10.53;100.00
62418;BME280;48456;54.242;10.280;2023-03-19T08:50:29;101151.34;;;10.64;100.00
62418;BME280;48456;54.242;10.280;2023-03-19T08:52:56;101146.94;;;10.74;100.00
62418;BME280;48456;54.242;10.280;2023-03-19T08:55:22;101139.88;;;10.79;100.00
62418;BME280;48456;54.242;10.280;2023-03-19T08:57:49;101149.59;;;10.85;100.00
62418;BME280;48456;54.242;10.280;2023-03-19T09:00:15;101139.88;;;10.92;100.00
62418;BME280;48456;54.242;10.280;2023-03-19T09:02:42;101139.88;;;11.03;100.00
62418;BME280;48456;54.242;10.280;2023-03-19T09:05:08;101148.72;;;11.03;100.00
62418;BME280;48456;54.242;10.280;2023-03-19T09:07:35;101150.44;;;11.11;100.00
62418;BME280;48456;54.242;10.280;2023-03-19T09:10:01;101146.06;;;11.13;100.00
62418;BME280;48456;54.242;10.280;2023-03-19T09:12:28;101153.97;;;11.19;100.00
62418;BME280;48456;54.242;10.280;2023-03-19T09:14:54;101158.38;;;11.29;100.00
62418;BME280;48456;54.242;10.280;2023-03-19T09:17:20;101157.50;;;11.32;100.00
62418;BME280;48456;54.242;10.280;2023-03-19T09:19:47;101151.28;;;11.50;100.00
62418;BME280;48456;54.242;10.280;2023-03-19T09:22:13;101160.97;;;11.62;100.00
62418;BME280;48456;54.242;10.280;2023-03-19T09:24:39;101155.63;;;11.73;100.00
62418;BME280;48456;54.242;10.280;2023-03-19T09:27:06;101159.97;;;11.90;100.00
62418;BME280;48456;54.242;10.280;2023-03-19T09:29:32;101160.78;;;12.04;100.00
62418;BME280;48456;54.242;10.280;2023-03-19T09:31:58;101161.69;;;12.11;100.00
62418;BME280;48456;54.242;10.280;2023-03-19T09:34:25;101161.66;;;12.16;100.00
62418;BME280;48456;54.242;10.280;2023-03-19T09:36:52;101159.81;;;12.29;100.00
62418;BME280;48456;54.242;10.280;2023-03-19T09:39:18;101161.53;;;12.36;100.00
62418;BME280;48456;54.242;10.280;2023-03-19T09:41:53;101160.47;;;12.64;100.00
62418;BME280;48456;54.242;10.280;2023-03-19T09:44:29;101161.16;;;12.92;100.00
62418;BME280;48456;54.242;10.280;2023-03-19T09:49:47;101165.31;;;13.21;100.00
62418;BME280;48456;54.242;10.280;2023-03-19T09:52:18;101164.38;;;13.27;100.00
62418;BME280;48456;54.242;10.280;2023-03-19T09:54:50;101170.53;;;13.32;100.00
62418;BME280;48456;54.242;10.280;2023-03-19T09:57:19;101166.19;;;13.23;100.00
62418;BME280;48456;54.242;10.280;2023-03-19T09:59:46;101174.06;;;13.34;100.00
62418;BME280;48456;54.242;10.280;2023-03-19T10:12:44;101182.78;;;13.46;100.00
62418;BME280;48456;54.242;10.280;2023-03-19T10:17:42;101182.84;;;13.44;100.00
62418;BME280;48456;54.242;10.280;2023-03-19T10:23:43;101186.38;;;13.42;100.00
62418;BME280;48456;54.242;10.280;2023-03-19T10:25:43;101182.91;;;13.33;100.00
62418;BME280;48456;54.242;10.280;2023-03-19T10:28:11;101188.28;;;13.30;100.00
62418;BME280;48456;54.242;10.280;2023-03-19T10:30:40;101192.69;;;13.33;100.00
62418;BME280;48456;54.242;10.280;2023-03-19T10:35:43;101187.25;;;13.45;100.00
62418;BME280;48456;54.242;10.280;2023-03-19T10:43:28;101184.38;;;13.67;100.00
62418;BME280;48456;54.242;10.280;2023-03-19T10:45:55;101187.59;;;13.94;100.00
62418;BME280;48456;54.242;10.280;2023-03-19T10:48:23;101189.00;;;14.25;100.00
62418;BME280;48456;54.242;10.280;2023-03-19T10:50:56;101193.09;;;14.49;100.00
62418;BME280;48456;54.242;10.280;2023-03-19T10:53:26;101187.75;;;14.52;100.00
62418;BME280;48456;54.242;10.280;2023-03-19T10:55:54;101187.56;;;14.63;100.00
62418;BME280;48456;54.242;10.280;2023-03-19T10:58:22;101188.22;;;14.81;100.00
62418;BME280;48456;54.242;10.280;2023-03-19T11:00:57;101189.56;;;15.07;100.00
62418;BME280;48456;54.242;10.280;2023-03-19T11:08:29;101190.13;;;15.26;100.00
62418;BME280;48456;54.242;10.280;2023-03-19T11:11:01;101193.78;;;15.20;100.00
62418;BME280;48456;54.242;10.280;2023-03-19T11:13:27;101186.16;;;14.99;100.00
62418;BME280;48456;54.242;10.280;2023-03-19T11:15:56;101200.78;;;14.69;100.00
62418;BME280;48456;54.242;10.280;2023-03-19T11:18:28;101194.91;;;14.47;100.00
62418;BME280;48456;54.242;10.280;2023-03-19T11:20:56;101199.53;;;14.33;100.00
62418;BME280;48456;54.242;10.280;2023-03-19T11:23:25;101200.63;;;14.16;100.00
62418;BME280;48456;54.242;10.280;2023-03-19T11:25:53;101203.38;;;14.11;100.00
62418;BME280;48456;54.242;10.280;2023-03-19T11:28:20;101213.09;;;14.12;100.00
62418;BME280;48456;54.242;10.280;2023-03-19T11:33:46;101204.28;;;14.10;100.00
62418;BME280;48456;54.242;10.280;2023-03-19T11:36:21;101209.66;;;14.04;100.00
62418;BME280;48456;54.242;10.280;2023-03-19T11:43:53;101206.97;;;14.09;100.00
62418;BME280;48456;54.242;10.280;2023-03-19T11:49:07;101207.75;;;14.15;100.00
62418;BME280;48456;54.242;10.280;2023-03-19T11:54:04;101211.28;;;14.16;100.00
62418;BME280;48456;54.242;10.280;2023-03-19T11:56:39;101211.41;;;14.07;100.00
62418;BME280;48456;54.242;10.280;2023-03-19T12:01:49;101209.34;;;13.52;100.00
62418;BME280;48456;54.242;10.280;2023-03-19T12:10:06;101213.31;;;13.03;100.00
62418;BME280;48456;54.242;10.280;2023-03-19T12:12:55;101212.47;;;12.97;100.00
62418;BME280;48456;54.242;10.280;2023-03-19T12:20:51;101212.41;;;12.99;100.00
62418;BME280;48456;54.242;10.280;2023-03-19T12:23:45;101206.16;;;13.08;100.00
62418;BME280;48456;54.242;10.280;2023-03-19T12:26:31;101207.00;;;13.13;100.00
62418;BME280;48456;54.242;10.280;2023-03-19T12:29:09;101205.94;;;13.34;100.00
62418;BME280;48456;54.242;10.280;2023-03-19T12:31:44;101208.44;;;13.53;100.00
62418;BME280;48456;54.242;10.280;2023-03-19T12:39:29;101195.06;;;15.48;100.00
62418;BME280;48456;54.242;10.280;2023-03-19T12:41:58;101194.88;;;16.06;100.00
62418;BME280;48456;54.242;10.280;2023-03-19T12:44:28;101196.94;;;15.90;100.00
62418;BME280;48456;54.242;10.280;2023-03-19T12:46:58;101196.75;;;15.54;100.00
62418;BME280;48456;54.242;10.280;2023-03-19T12:49:29;101192.59;;;15.37;100.00
62418;BME280;48456;54.242;10.280;2023-03-19T12:51:58;101192.16;;;15.13;100.00
62418;BME280;48456;54.242;10.280;2023-03-19T12:54:28;101187.88;;;15.03;100.00
62418;BME280;48456;54.242;10.280;2023-03-19T13:02:41;101197.91;;;14.87;100.00
62418;BME280;48456;54.242;10.280;2023-03-19T13:05:03;101199.81;;;14.78;100.00
62418;BME280;48456;54.242;10.280;2023-03-19T13:07:39;101198.84;;;14.83;100.00
62418;BME280;48456;54.242;10.280;2023-03-19T13:10:13;101196.31;;;14.72;100.00
62418;BME280;48456;54.242;10.280;2023-03-19T13:12:42;101193.63;;;14.75;100.00
62418;BME280;48456;54.242;10.280;2023-03-19T13:15:14;101188.53;;;14.59;100.00
62418;BME280;48456;54.242;10.280;2023-03-19T13:23:00;101195.16;;;14.28;100.00
62418;BME280;48456;54.242;10.280;2023-03-19T13:25:37;101189.81;;;14.30;100.00
62418;BME280;48456;54.242;10.280;2023-03-19T13:28:05;101197.78;;;14.30;100.00
62418;BME280;48456;54.242;10.280;2023-03-19T13:30:34;101193.38;;;14.31;100.00
62418;BME280;48456;54.242;10.280;2023-03-19T13:33:05;101194.22;;;14.31;100.00
62418;BME280;48456;54.242;10.280;2023-03-19T13:38:03;101182.06;;;14.79;100.00
62418;BME280;48456;54.242;10.280;2023-03-19T13:43:18;101174.38;;;15.12;100.00
62418;BME280;48456;54.242;10.280;2023-03-19T13:53:36;101170.13;;;15.02;100.00
62418;BME280;48456;54.242;10.280;2023-03-19T13:56:04;101168.44;;;14.96;100.00
62418;BME280;48456;54.242;10.280;2023-03-19T13:58:51;101164.06;;;14.92;100.00
62418;BME280;48456;54.242;10.280;2023-03-19T14:03:58;101165.75;;;14.99;100.00
62418;BME280;48456;54.242;10.280;2023-03-19T14:08:54;101160.56;;;15.88;100.00
62418;BME280;48456;54.242;10.280;2023-03-19T14:11:21;101157.22;;;16.20;100.00
62418;BME280;48456;54.242;10.280;2023-03-19T14:13:48;101165.09;;;16.25;100.00
62418;BME280;48456;54.242;10.280;2023-03-19T14:16:28;101168.38;;;16.38;100.00